sensor_id;sensor_type;location;lat;lon;timestamp;pressure;altitude;pressure_sealevel;temperature;humidity
77216;BME280;66210;53.282;9.864;2023-08-20T00:00:59;101548.41;;;19.52;93.64
77216;BME280;66210;53.282;9.864;2023-08-20T00:03:29;101554.44;;;19.53;93.06
77216;BME280;66210;53.282;9.864;2023-08-20T00:05:56;101557.84;;;19.52;92.85
77216;BME280;66210;53.282;9.864;2023-08-20T00:08:23;101557.78;;;19.49;92.65
77216;BME280;66210;53.282;9.864;2023-08-20T00:10:49;101559.31;;;19.41;92.67
77216;BME280;66210;53.282;9.864;2023-08-20T00:13:16;101561.84;;;19.39;92.58
77216;BME280;66210;53.282;9.864;2023-08-20T00:15:43;101555.66;;;19.32;92.67
77216;BME280;66210;53.282;9.864;2023-08-20T00:18:10;101564.31;;;19.33;92.65
77216;BME280;66210;53.282;9.864;2023-08-20T00:20:37;101569.34;;;19.30;92.55
77216;BME280;66210;53.282;9.864;2023-08-20T00:23:04;101569.25;;;19.24;92.68
77216;BME280;66210;53.282;9.864;2023-08-20T00:25:31;101574.25;;;19.18;92.69
77216;BME280;66210;53.282;9.864;2023-08-20T00:27:58;101565.56;;;19.14;92.72
77216;BME280;66210;53.282;9.864;2023-08-20T00:30:25;101560.19;;;19.05;92.64
77216;BME280;66210;53.282;9.864;2023-08-20T00:32:51;101577.34;;;19.04;92.58
77216;BME280;66210;53.282;9.864;2023-08-20T00:35:19;101570.31;;;18.99;92.42
77216;BME280;66210;53.282;9.864;2023-08-20T00:37:46;101587.44;;;18.97;92.23
77216;BME280;66210;53.282;9.864;2023-08-20T00:40:12;101582.97;;;18.88;92.20
77216;BME280;66210;53.282;9.864;2023-08-20T00:42:39;101585.25;;;18.77;92.49
77216;BME280;66210;53.282;9.864;2023-08-20T00:45:06;101577.41;;;18.74;92.31
77216;BME280;66210;53.282;9.864;2023-08-20T00:47:34;101586.94;;;18.77;92.47
77216;BME280;66210;53.282;9.864;2023-08-20T00:50:02;101586.88;;;18.75;92.08
77216;BME280;66210;53.282;9.864;2023-08-20T00:52:34;101585.91;;;18.70;92.22
77216;BME280;66210;53.282;9.864;2023-08-20T00:55:08;101590.94;;;18.65;92.10
77216;BME280;66210;53.282;9.864;2023-08-20T00:57:36;101595.16;;;18.63;91.77
77216;BME280;66210;53.282;9.864;2023-08-20T01:00:03;101595.06;;;18.60;92.10
77216;BME280;66210;53.282;9.864;2023-08-20T01:02:33;101592.34;;;18.56;92.38
77216;BME280;66210;53.282;9.864;2023-08-20T01:05:02;101594.94;;;18.56;92.20
77216;BME280;66210;53.282;9.864;2023-08-20T01:07:58;101594.06;;;18.55;92.24
77216;BME280;66210;53.282;9.864;2023-08-20T01:10:52;101587.16;;;18.53;92.13
77216;BME280;66210;53.282;9.864;2023-08-20T01:13:20;101598.34;;;18.55;92.01
77216;BME280;66210;53.282;9.864;2023-08-20T01:15:47;101595.69;;;18.52;92.12
77216;BME280;66210;53.282;9.864;2023-08-20T01:18:14;101585.38;;;18.52;92.34
77216;BME280;66210;53.282;9.864;2023-08-20T01:20:47;101586.34;;;18.55;92.19
77216;BME280;66210;53.282;9.864;2023-08-20T01:26:55;101586.28;;;18.54;92.27
77216;BME280;66210;53.282;9.864;2023-08-20T01:29:23;101587.09;;;18.51;92.25
77216;BME280;66210;53.282;9.864;2023-08-20T01:31:51;101578.38;;;18.46;92.22
77216;BME280;66210;53.282;9.864;2023-08-20T01:34:18;101585.38;;;18.50;92.51
77216;BME280;66210;53.282;9.864;2023-08-20T01:36:45;101580.97;;;18.46;92.81
77216;BME280;66210;53.282;9.864;2023-08-20T01:39:12;101581.03;;;18.49;92.82
77216;BME280;66210;53.282;9.864;2023-08-20T01:41:40;101571.34;;;18.40;92.90
77216;BME280;66210;53.282;9.864;2023-08-20T01:44:07;101576.50;;;18.40;93.01
77216;BME280;66210;53.282;9.864;2023-08-20T01:46:34;101579.91;;;18.39;93.38
77216;BME280;66210;53.282;9.864;2023-08-20T01:49:01;101592.97;;;18.45;93.38
77216;BME280;66210;53.282;9.864;2023-08-20T01:51:28;101579.91;;;18.39;93.63
77216;BME280;66210;53.282;9.864;2023-08-20T01:53:55;101585.13;;;18.42;93.37
77216;BME280;66210;53.282;9.864;2023-08-20T01:56:22;101585.19;;;18.44;93.65
77216;BME280;66210;53.282;9.864;2023-08-20T01:58:48;101592.13;;;18.46;93.80
77216;BME280;66210;53.282;9.864;2023-08-20T02:01:15;101582.66;;;18.45;93.72
77216;BME280;66210;53.282;9.864;2023-08-20T02:03:42;101585.31;;;18.48;93.68
77216;BME280;66210;53.282;9.864;2023-08-20T02:06:08;101589.66;;;18.51;93.95
77216;BME280;66210;53.282;9.864;2023-08-20T02:08:35;101585.25;;;18.47;93.86
77216;BME280;66210;53.282;9.864;2023-08-20T02:11:03;101587.09;;;18.51;93.93
77216;BME280;66210;53.282;9.864;2023-08-20T02:13:30;101580.13;;;18.47;94.07
77216;BME280;66210;53.282;9.864;2023-08-20T02:16:06;101585.31;;;18.48;94.42
77216;BME280;66210;53.282;9.864;2023-08-20T02:18:33;101578.56;;;18.52;94.20
77216;BME280;66210;53.282;9.864;2023-08-20T02:21:00;101572.44;;;18.48;94.07
77216;BME280;66210;53.282;9.864;2023-08-20T02:23:27;101587.03;;;18.49;94.30
77216;BME280;66210;53.282;9.864;2023-08-20T02:25:53;101581.00;;;18.47;94.69
77216;BME280;66210;53.282;9.864;2023-08-20T02:28:20;101573.13;;;18.41;94.55
77216;BME280;66210;53.282;9.864;2023-08-20T02:30:47;101580.00;;;18.42;94.63
77216;BME280;66210;53.282;9.864;2023-08-20T02:33:14;101585.97;;;18.41;94.57
77216;BME280;66210;53.282;9.864;2023-08-20T02:35:41;101583.31;;;18.38;94.98
77216;BME280;66210;53.282;9.864;2023-08-20T02:38:08;101582.38;;;18.35;94.39
77216;BME280;66210;53.282;9.864;2023-08-20T02:40:40;101582.50;;;18.39;94.89
77216;BME280;66210;53.282;9.864;2023-08-20T02:43:08;101586.72;;;18.37;94.74
77216;BME280;66210;53.282;9.864;2023-08-20T02:45:40;101586.66;;;18.36;94.75
77216;BME280;66210;53.282;9.864;2023-08-20T02:48:07;101591.75;;;18.33;94.75
77216;BME280;66210;53.282;9.864;2023-08-20T02:50:35;101594.25;;;18.31;94.81
77216;BME280;66210;53.282;9.864;2023-08-20T02:55:33;101593.31;;;18.27;94.86
77216;BME280;66210;53.282;9.864;2023-08-20T02:58:00;101591.75;;;18.33;94.92
77216;BME280;66210;53.282;9.864;2023-08-20T03:00:26;101591.75;;;18.33;94.84
77216;BME280;66210;53.282;9.864;2023-08-20T03:02:54;101590.91;;;18.34;94.71
77216;BME280;66210;53.282;9.864;2023-08-20T03:05:21;101594.31;;;18.33;94.81
77216;BME280;66210;53.282;9.864;2023-08-20T03:07:47;101592.53;;;18.30;94.98
77216;BME280;66210;53.282;9.864;2023-08-20T03:10:14;101598.53;;;18.31;94.79
77216;BME280;66210;53.282;9.864;2023-08-20T03:12:41;101601.19;;;18.34;95.33
77216;BME280;66210;53.282;9.864;2023-08-20T03:15:07;101595.00;;;18.27;94.98
77216;BME280;66210;53.282;9.864;2023-08-20T03:17:34;101592.34;;;18.24;95.09
77216;BME280;66210;53.282;9.864;2023-08-20T03:20:01;101608.84;;;18.31;95.04
77216;BME280;66210;53.282;9.864;2023-08-20T03:22:31;101607.19;;;18.33;95.35
77216;BME280;66210;53.282;9.864;2023-08-20T03:24:57;101607.13;;;18.31;95.51
77216;BME280;66210;53.282;9.864;2023-08-20T03:27:24;101595.91;;;18.29;95.30
77216;BME280;66210;53.282;9.864;2023-08-20T03:29:51;101592.41;;;18.25;95.31
77216;BME280;66210;53.282;9.864;2023-08-20T03:32:18;101597.56;;;18.27;95.14
77216;BME280;66210;53.282;9.864;2023-08-20T03:34:45;101603.50;;;18.24;95.56
77216;BME280;66210;53.282;9.864;2023-08-20T03:37:11;101603.50;;;18.24;95.78
77216;BME280;66210;53.282;9.864;2023-08-20T03:39:38;101605.13;;;18.21;95.43
77216;BME280;66210;53.282;9.864;2023-08-20T03:42:05;101600.91;;;18.23;95.28
77216;BME280;66210;53.282;9.864;2023-08-20T03:44:31;101611.06;;;18.18;95.07
77216;BME280;66210;53.282;9.864;2023-08-20T03:46:58;101617.88;;;18.16;95.34
77216;BME280;66210;53.282;9.864;2023-08-20T03:49:25;101619.59;;;18.17;95.07
77216;BME280;66210;53.282;9.864;2023-08-20T03:51:51;101624.78;;;18.19;94.85
77216;BME280;66210;53.282;9.864;2023-08-20T03:54:18;101630.72;;;18.16;95.33
77216;BME280;66210;53.282;9.864;2023-08-20T03:56:45;101633.31;;;18.18;95.18
77216;BME280;66210;53.282;9.864;2023-08-20T03:59:11;101631.53;;;18.15;95.11
77216;BME280;66210;53.282;9.864;2023-08-20T04:01:38;101633.31;;;18.16;95.28
77216;BME280;66210;53.282;9.864;2023-08-20T04:04:05;101624.53;;;18.10;95.24
77216;BME280;66210;53.282;9.864;2023-08-20T04:06:31;101632.41;;;18.16;95.49
77216;BME280;66210;53.282;9.864;2023-08-20T04:08:58;101615.06;;;18.08;95.34
77216;BME280;66210;53.282;9.864;2023-08-20T04:11:25;101624.53;;;18.10;95.41
77216;BME280;66210;53.282;9.864;2023-08-20T04:13:52;101627.97;;;18.10;95.27
77216;BME280;66210;53.282;9.864;2023-08-20T04:16:19;101626.22;;;18.09;95.87
77216;BME280;66210;53.282;9.864;2023-08-20T04:18:45;101633.13;;;18.10;95.24
77216;BME280;66210;53.282;9.864;2023-08-20T04:21:12;101632.00;;;18.02;95.22
77216;BME280;66210;53.282;9.864;2023-08-20T04:23:40;101628.50;;;18.00;95.54
77216;BME280;66210;53.282;9.864;2023-08-20T04:26:07;101624.06;;;17.94;95.76
77216;BME280;66210;53.282;9.864;2023-08-20T04:28:34;101619.72;;;17.92;95.67
77216;BME280;66210;53.282;9.864;2023-08-20T04:31:00;101640.44;;;17.96;95.59
77216;BME280;66210;53.282;9.864;2023-08-20T04:33:27;101637.75;;;17.93;95.60
77216;BME280;66210;53.282;9.864;2023-08-20T04:35:54;101640.44;;;17.96;95.55
77216;BME280;66210;53.282;9.864;2023-08-20T04:38:20;101639.53;;;17.96;95.48
77216;BME280;66210;53.282;9.864;2023-08-20T04:40:48;101637.84;;;17.96;95.92
77216;BME280;66210;53.282;9.864;2023-08-20T04:43:15;101651.56;;;17.97;95.66
77216;BME280;66210;53.282;9.864;2023-08-20T04:45:42;101659.22;;;17.94;95.30
77216;BME280;66210;53.282;9.864;2023-08-20T04:48:08;101661.66;;;17.91;95.56
77216;BME280;66210;53.282;9.864;2023-08-20T04:50:35;101664.25;;;17.91;96.04
77216;BME280;66210;53.282;9.864;2023-08-20T04:53:02;101660.81;;;17.90;95.87
77216;BME280;66210;53.282;9.864;2023-08-20T04:55:29;101656.38;;;17.86;95.78
77216;BME280;66210;53.282;9.864;2023-08-20T04:57:57;101670.03;;;17.83;96.02
77216;BME280;66210;53.282;9.864;2023-08-20T05:00:24;101665.72;;;17.82;96.07
77216;BME280;66210;53.282;9.864;2023-08-20T05:02:51;101655.97;;;17.74;95.96
77216;BME280;66210;53.282;9.864;2023-08-20T05:05:18;101660.97;;;17.69;96.26
77216;BME280;66210;53.282;9.864;2023-08-20T05:07:44;101657.13;;;17.56;96.60
77216;BME280;66210;53.282;9.864;2023-08-20T05:10:11;101664.91;;;17.58;96.63
77216;BME280;66210;53.282;9.864;2023-08-20T05:12:37;101660.34;;;17.49;97.25
77216;BME280;66210;53.282;9.864;2023-08-20T05:15:05;101658.44;;;17.43;97.40
77216;BME280;66210;53.282;9.864;2023-08-20T05:17:31;101666.25;;;17.47;97.24
77216;BME280;66210;53.282;9.864;2023-08-20T05:19:58;101668.00;;;17.48;97.55
77216;BME280;66210;53.282;9.864;2023-08-20T05:22:24;101658.56;;;17.48;97.48
77216;BME280;66210;53.282;9.864;2023-08-20T05:24:51;101639.78;;;17.49;97.62
77216;BME280;66210;53.282;9.864;2023-08-20T05:27:18;101639.81;;;17.51;97.45
77216;BME280;66210;53.282;9.864;2023-08-20T05:29:45;101638.09;;;17.50;97.70
77216;BME280;66210;53.282;9.864;2023-08-20T05:32:11;101623.53;;;17.50;98.02
77216;BME280;66210;53.282;9.864;2023-08-20T05:34:38;101611.66;;;17.54;98.12
77216;BME280;66210;53.282;9.864;2023-08-20T05:37:05;101611.59;;;17.52;98.08
77216;BME280;66210;53.282;9.864;2023-08-20T05:39:37;101602.13;;;17.50;98.33
77216;BME280;66210;53.282;9.864;2023-08-20T05:42:04;101602.88;;;17.47;98.09
77216;BME280;66210;53.282;9.864;2023-08-20T05:44:31;101609.81;;;17.50;98.31
77216;BME280;66210;53.282;9.864;2023-08-20T05:46:58;101612.44;;;17.51;98.45
77216;BME280;66210;53.282;9.864;2023-08-20T05:49:25;101615.97;;;17.55;98.49
77216;BME280;66210;53.282;9.864;2023-08-20T05:51:55;101628.16;;;17.60;98.29
77216;BME280;66210;53.282;9.864;2023-08-20T05:54:22;101624.03;;;17.65;98.40
77216;BME280;66210;53.282;9.864;2023-08-20T05:56:48;101626.53;;;17.64;98.05
77216;BME280;66210;53.282;9.864;2023-08-20T05:59:15;101634.50;;;17.72;98.15
77216;BME280;66210;53.282;9.864;2023-08-20T06:01:42;101643.16;;;17.75;98.19
77216;BME280;66210;53.282;9.864;2023-08-20T06:04:09;101634.78;;;17.81;97.75
77216;BME280;66210;53.282;9.864;2023-08-20T06:06:36;101638.44;;;17.88;97.81
77216;BME280;66210;53.282;9.864;2023-08-20T06:09:03;101642.81;;;17.90;97.79
77216;BME280;66210;53.282;9.864;2023-08-20T06:11:35;101642.03;;;17.93;97.94
77216;BME280;66210;53.282;9.864;2023-08-20T06:14:02;101635.94;;;17.91;97.32
77216;BME280;66210;53.282;9.864;2023-08-20T06:16:29;101647.34;;;17.99;97.20
77216;BME280;66210;53.282;9.864;2023-08-20T06:18:55;101642.28;;;18.00;97.25
77216;BME280;66210;53.282;9.864;2023-08-20T06:21:24;101640.59;;;18.02;97.07
77216;BME280;66210;53.282;9.864;2023-08-20T06:23:50;101641.50;;;18.04;96.98
77216;BME280;66210;53.282;9.864;2023-08-20T06:26:17;101651.13;;;18.10;97.09
77216;BME280;66210;53.282;9.864;2023-08-20T06:28:43;101654.69;;;18.15;97.02
77216;BME280;66210;53.282;9.864;2023-08-20T06:31:11;101640.97;;;18.15;96.87
77216;BME280;66210;53.282;9.864;2023-08-20T06:33:37;101656.59;;;18.22;96.65
77216;BME280;66210;53.282;9.864;2023-08-20T06:36:04;101653.22;;;18.23;96.49
77216;BME280;66210;53.282;9.864;2023-08-20T06:38:31;101655.06;;;18.27;96.59
77216;BME280;66210;53.282;9.864;2023-08-20T06:40:57;101656.97;;;18.35;96.38
77216;BME280;66210;53.282;9.864;2023-08-20T06:43:24;101663.19;;;18.41;96.12
77216;BME280;66210;53.282;9.864;2023-08-20T06:45:51;101668.44;;;18.46;96.23
77216;BME280;66210;53.282;9.864;2023-08-20T06:48:19;101662.56;;;18.50;95.88
77216;BME280;66210;53.282;9.864;2023-08-20T06:50:46;101670.44;;;18.56;95.93
77216;BME280;66210;53.282;9.864;2023-08-20T06:53:14;101650.75;;;18.57;95.86
77216;BME280;66210;53.282;9.864;2023-08-20T06:55:40;101660.50;;;18.68;95.84
77216;BME280;66210;53.282;9.864;2023-08-20T06:58:07;101669.22;;;18.74;95.48
77216;BME280;66210;53.282;9.864;2023-08-20T07:00:34;101663.34;;;18.78;95.54
77216;BME280;66210;53.282;9.864;2023-08-20T07:03:02;101668.63;;;18.82;95.40
77216;BME280;66210;53.282;9.864;2023-08-20T07:05:30;101670.50;;;18.88;95.31
77216;BME280;66210;53.282;9.864;2023-08-20T07:07:57;101670.59;;;18.91;95.20
77216;BME280;66210;53.282;9.864;2023-08-20T07:10:24;101664.59;;;18.92;95.19
77216;BME280;66210;53.282;9.864;2023-08-20T07:12:51;101670.59;;;18.91;95.47
77216;BME280;66210;53.282;9.864;2023-08-20T07:15:17;101666.28;;;18.92;95.18
77216;BME280;66210;53.282;9.864;2023-08-20T07:17:44;101664.47;;;18.87;95.25
77216;BME280;66210;53.282;9.864;2023-08-20T07:20:12;101662.81;;;18.89;95.09
77216;BME280;66210;53.282;9.864;2023-08-20T07:22:38;101657.50;;;18.83;94.90
77216;BME280;66210;53.282;9.864;2023-08-20T07:25:09;101668.81;;;18.88;94.86
77216;BME280;66210;53.282;9.864;2023-08-20T07:27:35;101668.81;;;18.88;95.16
77216;BME280;66210;53.282;9.864;2023-08-20T07:30:04;101681.75;;;18.92;94.97
77216;BME280;66210;53.282;9.864;2023-08-20T07:32:31;101680.09;;;18.94;94.97
77216;BME280;66210;53.282;9.864;2023-08-20T07:34:58;101694.81;;;18.98;94.99
77216;BME280;66210;53.282;9.864;2023-08-20T07:37:24;101688.84;;;19.00;94.82
77216;BME280;66210;53.282;9.864;2023-08-20T07:39:51;101689.81;;;19.04;94.71
77216;BME280;66210;53.282;9.864;2023-08-20T07:42:18;101684.69;;;19.05;94.36
77216;BME280;66210;53.282;9.864;2023-08-20T07:44:44;101684.78;;;19.08;94.79
77216;BME280;66210;53.282;9.864;2023-08-20T07:47:11;101694.38;;;19.14;94.59
77216;BME280;66210;53.282;9.864;2023-08-20T07:49:39;101686.72;;;19.17;94.66
77216;BME280;66210;53.282;9.864;2023-08-20T07:52:06;101681.53;;;19.16;94.38
77216;BME280;66210;53.282;9.864;2023-08-20T07:54:32;101690.34;;;19.24;94.06
77216;BME280;66210;53.282;9.864;2023-08-20T07:56:59;101685.22;;;19.25;93.65
77216;BME280;66210;53.282;9.864;2023-08-20T07:59:26;101687.91;;;19.30;93.48
77216;BME280;66210;53.282;9.864;2023-08-20T08:01:53;101693.97;;;19.32;93.16
77216;BME280;66210;53.282;9.864;2023-08-20T08:04:19;101695.75;;;19.35;93.29
77216;BME280;66210;53.282;9.864;2023-08-20T08:06:46;101695.03;;;19.40;93.41
77216;BME280;66210;53.282;9.864;2023-08-20T08:09:26;101698.69;;;19.48;93.28
77216;BME280;66210;53.282;9.864;2023-08-20T08:11:54;101692.69;;;19.49;93.02
77216;BME280;66210;53.282;9.864;2023-08-20T08:14:21;101701.41;;;19.55;93.01
77216;BME280;66210;53.282;9.864;2023-08-20T08:16:48;101706.66;;;19.58;92.38
77216;BME280;66210;53.282;9.864;2023-08-20T08:19:14;101709.41;;;19.65;92.25
77216;BME280;66210;53.282;9.864;2023-08-20T08:21:42;101697.63;;;19.75;91.28
77216;BME280;66210;53.282;9.864;2023-08-20T08:24:10;101706.47;;;19.86;91.00
77216;BME280;66210;53.282;9.864;2023-08-20T08:26:37;101702.44;;;19.96;90.01
77216;BME280;66210;53.282;9.864;2023-08-20T08:29:05;101704.75;;;20.23;89.11
77216;BME280;66210;53.282;9.864;2023-08-20T08:31:32;101692.41;;;20.49;86.92
77216;BME280;66210;53.282;9.864;2023-08-20T08:33:59;101706.16;;;20.91;85.16
77216;BME280;66210;53.282;9.864;2023-08-20T08:36:26;101703.31;;;21.24;84.40
77216;BME280;66210;53.282;9.864;2023-08-20T08:38:53;101710.84;;;21.61;81.94
77216;BME280;66210;53.282;9.864;2023-08-20T08:41:22;101706.09;;;21.87;80.56
77216;BME280;66210;53.282;9.864;2023-08-20T08:43:50;101694.47;;;22.21;79.68
77216;BME280;66210;53.282;9.864;2023-08-20T08:46:17;101704.34;;;22.47;75.87
77216;BME280;66210;53.282;9.864;2023-08-20T08:48:45;101719.41;;;22.78;77.27
77216;BME280;66210;53.282;9.864;2023-08-20T08:51:13;101714.50;;;23.04;76.60
77216;BME280;66210;53.282;9.864;2023-08-20T08:53:42;101707.00;;;23.32;74.50
77216;BME280;66210;53.282;9.864;2023-08-20T08:56:12;101706.41;;;23.67;73.16
77216;BME280;66210;53.282;9.864;2023-08-20T08:58:40;101707.50;;;23.98;72.42
77216;BME280;66210;53.282;9.864;2023-08-20T09:01:06;101712.91;;;24.31;71.20
77216;BME280;66210;53.282;9.864;2023-08-20T09:03:33;101711.28;;;24.59;70.68
77216;BME280;66210;53.282;9.864;2023-08-20T09:06:01;101718.31;;;24.83;69.63
77216;BME280;66210;53.282;9.864;2023-08-20T09:08:31;101717.47;;;25.01;68.80
77216;BME280;66210;53.282;9.864;2023-08-20T09:10:59;101711.41;;;25.11;66.95
77216;BME280;66210;53.282;9.864;2023-08-20T09:13:39;101708.88;;;25.29;67.53
77216;BME280;66210;53.282;9.864;2023-08-20T09:16:07;101719.28;;;25.43;65.96
77216;BME280;66210;53.282;9.864;2023-08-20T09:18:39;101724.50;;;25.49;66.91
77216;BME280;66210;53.282;9.864;2023-08-20T09:21:12;101714.97;;;25.41;67.84
77216;BME280;66210;53.282;9.864;2023-08-20T09:23:39;101713.22;;;25.52;67.41
77216;BME280;66210;53.282;9.864;2023-08-20T09:26:07;101713.22;;;25.60;66.63
77216;BME280;66210;53.282;9.864;2023-08-20T09:28:45;101714.06;;;25.65;65.26
77216;BME280;66210;53.282;9.864;2023-08-20T09:31:13;101708.88;;;25.69;65.64
77216;BME280;66210;53.282;9.864;2023-08-20T09:33:53;101707.13;;;25.91;63.54
77216;BME280;66210;53.282;9.864;2023-08-20T09:36:32;101714.06;;;25.82;63.79
77216;BME280;66210;53.282;9.864;2023-08-20T09:39:01;101712.31;;;25.78;64.03
77216;BME280;66210;53.282;9.864;2023-08-20T09:41:28;101707.09;;;25.96;62.83
77216;BME280;66210;53.282;9.864;2023-08-20T09:43:59;101700.13;;;26.13;63.24
77216;BME280;66210;53.282;9.864;2023-08-20T09:46:27;101701.78;;;26.34;63.01
77216;BME280;66210;53.282;9.864;2023-08-20T09:48:56;101702.59;;;26.41;63.35
77216;BME280;66210;53.282;9.864;2023-08-20T09:51:28;101688.69;;;26.48;61.84
77216;BME280;66210;53.282;9.864;2023-08-20T09:54:05;101696.41;;;26.76;62.41
77216;BME280;66210;53.282;9.864;2023-08-20T09:56:39;101693.59;;;27.07;60.96
77216;BME280;66210;53.282;9.864;2023-08-20T09:59:06;101693.44;;;27.31;59.90
77216;BME280;66210;53.282;9.864;2023-08-20T10:01:34;101698.56;;;27.41;60.47
77216;BME280;66210;53.282;9.864;2023-08-20T10:04:02;101698.56;;;27.42;58.34
77216;BME280;66210;53.282;9.864;2023-08-20T10:06:30;101695.06;;;27.45;59.86
77216;BME280;66210;53.282;9.864;2023-08-20T10:08:59;101696.69;;;27.58;58.23
77216;BME280;66210;53.282;9.864;2023-08-20T10:11:26;101688.81;;;27.61;59.67
77216;BME280;66210;53.282;9.864;2023-08-20T10:13:53;101689.53;;;27.77;58.98
77216;BME280;66210;53.282;9.864;2023-08-20T10:16:21;101679.00;;;27.89;56.79
77216;BME280;66210;53.282;9.864;2023-08-20T10:18:48;101676.22;;;28.03;57.00
77216;BME280;66210;53.282;9.864;2023-08-20T10:21:15;101678.66;;;28.18;57.86
77216;BME280;66210;53.282;9.864;2023-08-20T10:23:48;101666.25;;;28.33;57.08
77216;BME280;66210;53.282;9.864;2023-08-20T10:26:20;101674.78;;;28.49;55.99
77216;BME280;66210;53.282;9.864;2023-08-20T10:28:48;101674.59;;;28.64;57.05
77216;BME280;66210;53.282;9.864;2023-08-20T10:31:16;101671.03;;;28.68;56.48
77216;BME280;66210;53.282;9.864;2023-08-20T10:36:15;101671.13;;;28.62;54.67
77216;BME280;66210;53.282;9.864;2023-08-20T10:38:46;101668.81;;;28.36;55.34
77216;BME280;66210;53.282;9.864;2023-08-20T10:41:13;101669.66;;;28.39;55.53
77216;BME280;66210;53.282;9.864;2023-08-20T10:43:46;101676.53;;;28.47;55.46
77216;BME280;66210;53.282;9.864;2023-08-20T10:46:22;101671.97;;;28.63;55.67
77216;BME280;66210;53.282;9.864;2023-08-20T10:48:57;101670.88;;;28.79;55.21
77216;BME280;66210;53.282;9.864;2023-08-20T10:51:30;101666.78;;;28.61;54.52
77216;BME280;66210;53.282;9.864;2023-08-20T10:59:09;101676.78;;;28.27;55.75
77216;BME280;66210;53.282;9.864;2023-08-20T11:01:36;101674.28;;;28.16;55.32
77216;BME280;66210;53.282;9.864;2023-08-20T11:04:04;101682.25;;;28.08;53.88
77216;BME280;66210;53.282;9.864;2023-08-20T11:06:33;101672.81;;;27.95;54.77
77216;BME280;66210;53.282;9.864;2023-08-20T11:09:01;101678.16;;;27.83;56.32
77216;BME280;66210;53.282;9.864;2023-08-20T11:11:29;101674.63;;;27.90;56.70
77216;BME280;66210;53.282;9.864;2023-08-20T11:13:57;101679.50;;;28.17;56.02
77216;BME280;66210;53.282;9.864;2023-08-20T11:16:24;101685.41;;;28.35;54.90
77216;BME280;66210;53.282;9.864;2023-08-20T11:18:52;101689.16;;;28.12;55.66
77216;BME280;66210;53.282;9.864;2023-08-20T11:21:30;101685.91;;;27.92;56.56
77216;BME280;66210;53.282;9.864;2023-08-20T11:23:57;101686.59;;;28.08;56.12
77216;BME280;66210;53.282;9.864;2023-08-20T11:26:23;101693.13;;;28.43;54.89
77216;BME280;66210;53.282;9.864;2023-08-20T11:28:52;101698.00;;;28.72;54.96
77216;BME280;66210;53.282;9.864;2023-08-20T11:31:19;101690.72;;;28.92;53.96
77216;BME280;66210;53.282;9.864;2023-08-20T11:33:46;101686.09;;;29.11;53.44
77216;BME280;66210;53.282;9.864;2023-08-20T11:36:17;101698.13;;;29.23;54.00
77216;BME280;66210;53.282;9.864;2023-08-20T11:38:50;101692.44;;;28.95;53.91
77216;BME280;66210;53.282;9.864;2023-08-20T11:41:17;101698.63;;;28.88;54.46
77216;BME280;66210;53.282;9.864;2023-08-20T11:43:44;101694.22;;;28.91;53.75
77216;BME280;66210;53.282;9.864;2023-08-20T11:46:14;101704.75;;;28.87;53.82
77216;BME280;66210;53.282;9.864;2023-08-20T11:49:04;101700.97;;;28.43;54.92
77216;BME280;66210;53.282;9.864;2023-08-20T11:51:41;101703.38;;;27.88;55.39
77216;BME280;66210;53.282;9.864;2023-08-20T11:54:10;101694.94;;;27.55;56.76
77216;BME280;66210;53.282;9.864;2023-08-20T11:56:48;101694.28;;;27.33;58.06
77216;BME280;66210;53.282;9.864;2023-08-20T11:59:19;101687.44;;;27.14;58.44
77216;BME280;66210;53.282;9.864;2023-08-20T12:01:51;101686.69;;;26.96;58.98
77216;BME280;66210;53.282;9.864;2023-08-20T12:04:18;101683.28;;;26.85;59.84
77216;BME280;66210;53.282;9.864;2023-08-20T12:06:44;101684.91;;;27.02;59.69
77216;BME280;66210;53.282;9.864;2023-08-20T12:09:28;101686.47;;;27.32;59.37
77216;BME280;66210;53.282;9.864;2023-08-20T12:11:55;101688.25;;;27.27;59.47
77216;BME280;66210;53.282;9.864;2023-08-20T12:14:22;101678.72;;;27.16;59.12
77216;BME280;66210;53.282;9.864;2023-08-20T12:16:49;101681.34;;;27.18;59.52
77216;BME280;66210;53.282;9.864;2023-08-20T12:19:17;101676.25;;;26.96;59.42
77216;BME280;66210;53.282;9.864;2023-08-20T12:21:44;101684.91;;;27.02;59.84
77216;BME280;66210;53.282;9.864;2023-08-20T12:24:11;101675.25;;;27.21;58.63
77216;BME280;66210;53.282;9.864;2023-08-20T12:26:39;101678.38;;;27.60;57.58
77216;BME280;66210;53.282;9.864;2023-08-20T12:29:06;101674.56;;;27.94;57.59
77216;BME280;66210;53.282;9.864;2023-08-20T12:31:34;101678.78;;;28.05;56.46
77216;BME280;66210;53.282;9.864;2023-08-20T12:34:01;101671.84;;;28.02;56.32
77216;BME280;66210;53.282;9.864;2023-08-20T12:36:28;101675.44;;;27.93;57.32
77216;BME280;66210;53.282;9.864;2023-08-20T12:38:55;101665.88;;;27.94;56.71
77216;BME280;66210;53.282;9.864;2023-08-20T12:41:22;101669.34;;;27.93;55.33
77216;BME280;66210;53.282;9.864;2023-08-20T12:43:49;101665.81;;;27.97;55.90
77216;BME280;66210;53.282;9.864;2023-08-20T12:46:16;101664.91;;;28.01;54.64
77216;BME280;66210;53.282;9.864;2023-08-20T12:48:43;101658.78;;;28.04;55.65
77216;BME280;66210;53.282;9.864;2023-08-20T12:51:10;101665.81;;;27.97;55.53
77216;BME280;66210;53.282;9.864;2023-08-20T12:53:40;101667.78;;;27.75;55.43
77216;BME280;66210;53.282;9.864;2023-08-20T12:56:06;101662.03;;;27.41;56.26
77216;BME280;66210;53.282;9.864;2023-08-20T12:58:33;101663.91;;;27.19;56.37
77216;BME280;66210;53.282;9.864;2023-08-20T13:01:00;101648.47;;;26.92;57.29
77216;BME280;66210;53.282;9.864;2023-08-20T13:03:27;101654.66;;;26.76;57.82
77216;BME280;66210;53.282;9.864;2023-08-20T13:05:55;101652.16;;;26.62;58.08
77216;BME280;66210;53.282;9.864;2023-08-20T13:08:25;101657.50;;;26.34;58.63